Terminal Aerodrome Forecast
Issued by NWS

Home | Current Version | Previous Version | Text Only | Print | Product List | Glossary On
Versions: 1 2 3 4 5 6 7 8 9 10 11 12 13 14 15 16 17 18 19 20 21 22 23 24 25 26 27 28
300
FTUS43 KDLH 041738
TAFHYR
TAF
KHYR 041738Z 0418/0518 19008KT P6SM -SN SCT015 BKN030
     FM041900 21007KT P6SM BKN015
     FM050600 VRB03KT P6SM SCT015=

USA.gov is the U.S. government's official web portal to all federal, state and local government web resources and services.